sensor_id;sensor_type;location;lat;lon;timestamp;temperature;humidity
8910;DHT22;4490;49.072;8.804;2022-07-17T00:00:40;16.80;68.40
8910;DHT22;4490;49.072;8.804;2022-07-17T00:03:15;16.70;68.50
8910;DHT22;4490;49.072;8.804;2022-07-17T00:05:42;16.70;68.60
8910;DHT22;4490;49.072;8.804;2022-07-17T00:08:09;16.60;68.70
8910;DHT22;4490;49.072;8.804;2022-07-17T00:10:42;16.60;68.90
8910;DHT22;4490;49.072;8.804;2022-07-17T00:13:08;16.50;68.90
8910;DHT22;4490;49.072;8.804;2022-07-17T00:15:34;16.50;69.10
8910;DHT22;4490;49.072;8.804;2022-07-17T00:18:00;16.40;69.30
8910;DHT22;4490;49.072;8.804;2022-07-17T00:20:26;16.40;69.40
8910;DHT22;4490;49.072;8.804;2022-07-17T00:22:53;16.40;69.40
8910;DHT22;4490;49.072;8.804;2022-07-17T00:25:19;16.30;69.50
8910;DHT22;4490;49.072;8.804;2022-07-17T00:27:45;16.20;69.60
8910;DHT22;4490;49.072;8.804;2022-07-17T00:30:11;16.20;70.00
8910;DHT22;4490;49.072;8.804;2022-07-17T00:32:38;16.20;70.10
8910;DHT22;4490;49.072;8.804;2022-07-17T00:35:04;16.10;70.20
8910;DHT22;4490;49.072;8.804;2022-07-17T00:37:30;16.10;71.10
8910;DHT22;4490;49.072;8.804;2022-07-17T00:39:55;16.10;70.50
8910;DHT22;4490;49.072;8.804;2022-07-17T00:42:21;16.10;70.70
8910;DHT22;4490;49.072;8.804;2022-07-17T00:44:47;16.00;70.60
8910;DHT22;4490;49.072;8.804;2022-07-17T00:47:19;16.00;70.60
8910;DHT22;4490;49.072;8.804;2022-07-17T00:49:46;16.00;70.50
8910;DHT22;4490;49.072;8.804;2022-07-17T00:52:13;16.00;70.60
8910;DHT22;4490;49.072;8.804;2022-07-17T00:54:41;15.90;70.70
8910;DHT22;4490;49.072;8.804;2022-07-17T00:57:09;15.80;71.50
8910;DHT22;4490;49.072;8.804;2022-07-17T00:59:35;15.70;70.80
8910;DHT22;4490;49.072;8.804;2022-07-17T01:02:09;15.60;71.00
8910;DHT22;4490;49.072;8.804;2022-07-17T01:04:36;15.60;71.30
8910;DHT22;4490;49.072;8.804;2022-07-17T01:07:05;15.60;71.30
8910;DHT22;4490;49.072;8.804;2022-07-17T01:09:32;15.50;71.40
8910;DHT22;4490;49.072;8.804;2022-07-17T01:11:58;15.50;71.40
8910;DHT22;4490;49.072;8.804;2022-07-17T01:14:25;15.40;71.40
8910;DHT22;4490;49.072;8.804;2022-07-17T01:16:52;15.40;71.50
8910;DHT22;4490;49.072;8.804;2022-07-17T01:19:18;15.40;72.50
8910;DHT22;4490;49.072;8.804;2022-07-17T01:21:46;15.40;71.60
8910;DHT22;4490;49.072;8.804;2022-07-17T01:24:13;15.40;71.80
8910;DHT22;4490;49.072;8.804;2022-07-17T01:26:46;15.30;71.70
8910;DHT22;4490;49.072;8.804;2022-07-17T01:29:13;15.30;72.00
8910;DHT22;4490;49.072;8.804;2022-07-17T01:31:40;15.20;72.10
8910;DHT22;4490;49.072;8.804;2022-07-17T01:34:06;15.20;72.10
8910;DHT22;4490;49.072;8.804;2022-07-17T01:36:34;15.10;72.10
8910;DHT22;4490;49.072;8.804;2022-07-17T01:38:59;15.10;73.00
8910;DHT22;4490;49.072;8.804;2022-07-17T01:41:25;15.10;73.20
8910;DHT22;4490;49.072;8.804;2022-07-17T01:43:51;15.10;72.60
8910;DHT22;4490;49.072;8.804;2022-07-17T01:46:16;15.10;72.40
8910;DHT22;4490;49.072;8.804;2022-07-17T01:48:42;15.10;72.30
8910;DHT22;4490;49.072;8.804;2022-07-17T01:51:08;15.00;72.30
8910;DHT22;4490;49.072;8.804;2022-07-17T01:53:33;15.00;72.70
8910;DHT22;4490;49.072;8.804;2022-07-17T01:55:59;15.00;72.70
8910;DHT22;4490;49.072;8.804;2022-07-17T01:58:25;14.90;72.80
8910;DHT22;4490;49.072;8.804;2022-07-17T02:00:51;14.90;72.80
8910;DHT22;4490;49.072;8.804;2022-07-17T02:03:17;14.80;72.90
8910;DHT22;4490;49.072;8.804;2022-07-17T02:05:43;14.80;73.00
8910;DHT22;4490;49.072;8.804;2022-07-17T02:08:09;14.80;73.20
8910;DHT22;4490;49.072;8.804;2022-07-17T02:10:35;14.80;73.10
8910;DHT22;4490;49.072;8.804;2022-07-17T02:13:00;14.70;73.10
8910;DHT22;4490;49.072;8.804;2022-07-17T02:15:27;14.70;73.10
8910;DHT22;4490;49.072;8.804;2022-07-17T02:17:52;14.70;73.10
8910;DHT22;4490;49.072;8.804;2022-07-17T02:20:18;14.60;73.10
8910;DHT22;4490;49.072;8.804;2022-07-17T02:22:44;14.60;73.90
8910;DHT22;4490;49.072;8.804;2022-07-17T02:25:11;14.60;74.10
8910;DHT22;4490;49.072;8.804;2022-07-17T02:27:37;14.50;73.40
8910;DHT22;4490;49.072;8.804;2022-07-17T02:30:12;14.50;73.50
8910;DHT22;4490;49.072;8.804;2022-07-17T02:32:38;14.50;73.70
8910;DHT22;4490;49.072;8.804;2022-07-17T02:35:05;14.50;73.70
8910;DHT22;4490;49.072;8.804;2022-07-17T02:37:31;14.30;73.90
8910;DHT22;4490;49.072;8.804;2022-07-17T02:39:57;14.30;73.90
8910;DHT22;4490;49.072;8.804;2022-07-17T02:42:25;14.20;74.00
8910;DHT22;4490;49.072;8.804;2022-07-17T02:44:52;14.20;74.30
8910;DHT22;4490;49.072;8.804;2022-07-17T02:47:26;14.10;74.70
8910;DHT22;4490;49.072;8.804;2022-07-17T02:49:52;14.10;74.90
8910;DHT22;4490;49.072;8.804;2022-07-17T02:52:18;14.00;75.20
8910;DHT22;4490;49.072;8.804;2022-07-17T02:54:45;14.00;75.20
8910;DHT22;4490;49.072;8.804;2022-07-17T02:57:11;13.90;75.20
8910;DHT22;4490;49.072;8.804;2022-07-17T02:59:37;13.90;75.30
8910;DHT22;4490;49.072;8.804;2022-07-17T03:02:03;13.90;75.50
8910;DHT22;4490;49.072;8.804;2022-07-17T03:04:28;13.90;75.50
8910;DHT22;4490;49.072;8.804;2022-07-17T03:06:54;13.90;75.60
8910;DHT22;4490;49.072;8.804;2022-07-17T03:09:20;13.90;75.70
8910;DHT22;4490;49.072;8.804;2022-07-17T03:11:45;13.90;75.70
8910;DHT22;4490;49.072;8.804;2022-07-17T03:14:11;13.90;75.60
8910;DHT22;4490;49.072;8.804;2022-07-17T03:16:37;13.90;75.50
8910;DHT22;4490;49.072;8.804;2022-07-17T03:19:03;13.90;75.70
8910;DHT22;4490;49.072;8.804;2022-07-17T03:21:28;13.80;75.60
8910;DHT22;4490;49.072;8.804;2022-07-17T03:23:54;13.80;75.50
8910;DHT22;4490;49.072;8.804;2022-07-17T03:26:20;13.80;75.50
8910;DHT22;4490;49.072;8.804;2022-07-17T03:28:45;13.80;75.60
8910;DHT22;4490;49.072;8.804;2022-07-17T03:31:11;13.80;75.70
8910;DHT22;4490;49.072;8.804;2022-07-17T03:33:36;13.80;75.70
8910;DHT22;4490;49.072;8.804;2022-07-17T03:36:02;13.70;75.60
8910;DHT22;4490;49.072;8.804;2022-07-17T03:38:28;13.70;75.80
8910;DHT22;4490;49.072;8.804;2022-07-17T03:40:53;13.70;76.00
8910;DHT22;4490;49.072;8.804;2022-07-17T03:43:19;13.60;76.00
8910;DHT22;4490;49.072;8.804;2022-07-17T03:45:45;13.60;75.90
8910;DHT22;4490;49.072;8.804;2022-07-17T03:48:10;13.60;76.00
8910;DHT22;4490;49.072;8.804;2022-07-17T03:50:36;13.50;75.90
8910;DHT22;4490;49.072;8.804;2022-07-17T03:53:02;13.50;75.90
8910;DHT22;4490;49.072;8.804;2022-07-17T03:55:27;13.50;76.00
8910;DHT22;4490;49.072;8.804;2022-07-17T03:57:53;13.50;76.00
8910;DHT22;4490;49.072;8.804;2022-07-17T04:00:19;13.40;76.00
8910;DHT22;4490;49.072;8.804;2022-07-17T04:02:44;13.40;76.10
8910;DHT22;4490;49.072;8.804;2022-07-17T04:05:10;13.50;76.10
8910;DHT22;4490;49.072;8.804;2022-07-17T04:07:40;13.50;76.10
8910;DHT22;4490;49.072;8.804;2022-07-17T04:10:07;13.50;76.00
8910;DHT22;4490;49.072;8.804;2022-07-17T04:12:34;13.60;76.00
8910;DHT22;4490;49.072;8.804;2022-07-17T04:15:00;13.50;76.00
8910;DHT22;4490;49.072;8.804;2022-07-17T04:17:26;13.60;76.00
8910;DHT22;4490;49.072;8.804;2022-07-17T04:19:52;13.60;76.00
8910;DHT22;4490;49.072;8.804;2022-07-17T04:22:18;13.60;75.90
8910;DHT22;4490;49.072;8.804;2022-07-17T04:24:45;13.60;75.90
8910;DHT22;4490;49.072;8.804;2022-07-17T04:27:11;13.60;76.00
8910;DHT22;4490;49.072;8.804;2022-07-17T04:29:38;13.60;76.10
8910;DHT22;4490;49.072;8.804;2022-07-17T04:32:04;13.60;76.30
8910;DHT22;4490;49.072;8.804;2022-07-17T04:34:30;13.60;76.50
8910;DHT22;4490;49.072;8.804;2022-07-17T04:36:58;13.60;76.50
8910;DHT22;4490;49.072;8.804;2022-07-17T04:39:23;13.50;76.50
8910;DHT22;4490;49.072;8.804;2022-07-17T04:41:50;13.60;76.70
8910;DHT22;4490;49.072;8.804;2022-07-17T04:44:16;13.60;76.70
8910;DHT22;4490;49.072;8.804;2022-07-17T04:46:41;13.60;76.70
8910;DHT22;4490;49.072;8.804;2022-07-17T04:49:07;13.60;76.60
8910;DHT22;4490;49.072;8.804;2022-07-17T04:51:33;13.60;76.60
8910;DHT22;4490;49.072;8.804;2022-07-17T04:53:58;13.70;76.80
8910;DHT22;4490;49.072;8.804;2022-07-17T04:56:24;13.70;76.90
8910;DHT22;4490;49.072;8.804;2022-07-17T04:58:49;13.70;77.10
8910;DHT22;4490;49.072;8.804;2022-07-17T05:01:15;13.70;77.00
8910;DHT22;4490;49.072;8.804;2022-07-17T05:03:41;13.70;77.10
8910;DHT22;4490;49.072;8.804;2022-07-17T05:06:06;13.80;77.30
8910;DHT22;4490;49.072;8.804;2022-07-17T05:08:34;13.80;77.40
8910;DHT22;4490;49.072;8.804;2022-07-17T05:11:00;13.90;77.60
8910;DHT22;4490;49.072;8.804;2022-07-17T05:13:26;14.00;77.60
8910;DHT22;4490;49.072;8.804;2022-07-17T05:15:51;14.10;77.40
8910;DHT22;4490;49.072;8.804;2022-07-17T05:18:18;14.20;77.10
8910;DHT22;4490;49.072;8.804;2022-07-17T05:20:43;14.20;76.90
8910;DHT22;4490;49.072;8.804;2022-07-17T05:23:09;14.30;76.60
8910;DHT22;4490;49.072;8.804;2022-07-17T05:25:34;14.40;76.30
8910;DHT22;4490;49.072;8.804;2022-07-17T05:28:00;14.50;76.20
8910;DHT22;4490;49.072;8.804;2022-07-17T05:30:27;14.60;76.00
8910;DHT22;4490;49.072;8.804;2022-07-17T05:32:53;14.70;75.70
8910;DHT22;4490;49.072;8.804;2022-07-17T05:35:19;14.80;75.40
8910;DHT22;4490;49.072;8.804;2022-07-17T05:37:44;14.90;75.20
8910;DHT22;4490;49.072;8.804;2022-07-17T05:40:10;14.90;75.00
8910;DHT22;4490;49.072;8.804;2022-07-17T05:42:36;15.00;74.80
8910;DHT22;4490;49.072;8.804;2022-07-17T05:45:02;15.20;74.50
8910;DHT22;4490;49.072;8.804;2022-07-17T05:47:28;15.30;74.10
8910;DHT22;4490;49.072;8.804;2022-07-17T05:49:54;15.40;73.70
8910;DHT22;4490;49.072;8.804;2022-07-17T05:52:20;15.50;73.30
8910;DHT22;4490;49.072;8.804;2022-07-17T05:54:45;15.60;72.90
8910;DHT22;4490;49.072;8.804;2022-07-17T05:57:11;15.80;73.30
8910;DHT22;4490;49.072;8.804;2022-07-17T05:59:37;16.10;72.80
8910;DHT22;4490;49.072;8.804;2022-07-17T06:02:03;16.50;71.80
8910;DHT22;4490;49.072;8.804;2022-07-17T06:04:29;16.90;71.10
8910;DHT22;4490;49.072;8.804;2022-07-17T06:06:54;17.40;70.30
8910;DHT22;4490;49.072;8.804;2022-07-17T06:09:20;17.90;70.00
8910;DHT22;4490;49.072;8.804;2022-07-17T06:11:45;18.50;68.10
8910;DHT22;4490;49.072;8.804;2022-07-17T06:14:11;19.00;66.30
8910;DHT22;4490;49.072;8.804;2022-07-17T06:16:36;19.30;65.60
8910;DHT22;4490;49.072;8.804;2022-07-17T06:19:02;19.60;64.30
8910;DHT22;4490;49.072;8.804;2022-07-17T06:21:28;19.80;63.30
8910;DHT22;4490;49.072;8.804;2022-07-17T06:23:53;20.00;62.60
8910;DHT22;4490;49.072;8.804;2022-07-17T06:26:19;20.20;62.30
8910;DHT22;4490;49.072;8.804;2022-07-17T06:28:45;20.30;61.30
8910;DHT22;4490;49.072;8.804;2022-07-17T06:31:11;20.40;62.00
8910;DHT22;4490;49.072;8.804;2022-07-17T06:33:37;20.50;60.60
8910;DHT22;4490;49.072;8.804;2022-07-17T06:36:03;20.50;60.70
8910;DHT22;4490;49.072;8.804;2022-07-17T06:38:29;20.40;60.30
8910;DHT22;4490;49.072;8.804;2022-07-17T06:40:55;20.40;60.40
8910;DHT22;4490;49.072;8.804;2022-07-17T06:43:20;20.30;61.40
8910;DHT22;4490;49.072;8.804;2022-07-17T06:45:46;20.40;60.70
8910;DHT22;4490;49.072;8.804;2022-07-17T06:48:12;20.40;60.60
8910;DHT22;4490;49.072;8.804;2022-07-17T06:50:37;20.40;59.80
8910;DHT22;4490;49.072;8.804;2022-07-17T06:53:03;20.50;59.80
8910;DHT22;4490;49.072;8.804;2022-07-17T06:55:29;20.50;59.90
8910;DHT22;4490;49.072;8.804;2022-07-17T06:57:55;20.60;59.60
8910;DHT22;4490;49.072;8.804;2022-07-17T07:00:20;20.70;59.70
8910;DHT22;4490;49.072;8.804;2022-07-17T07:02:46;20.80;59.80
8910;DHT22;4490;49.072;8.804;2022-07-17T07:05:12;20.90;59.70
8910;DHT22;4490;49.072;8.804;2022-07-17T07:07:37;21.10;59.70
8910;DHT22;4490;49.072;8.804;2022-07-17T07:10:03;21.20;59.20
8910;DHT22;4490;49.072;8.804;2022-07-17T07:12:29;21.30;59.60
8910;DHT22;4490;49.072;8.804;2022-07-17T07:14:55;21.50;60.00
8910;DHT22;4490;49.072;8.804;2022-07-17T07:17:21;21.50;58.60
8910;DHT22;4490;49.072;8.804;2022-07-17T07:19:47;21.60;58.10
8910;DHT22;4490;49.072;8.804;2022-07-17T07:22:12;21.70;58.10
8910;DHT22;4490;49.072;8.804;2022-07-17T07:24:38;21.80;57.90
8910;DHT22;4490;49.072;8.804;2022-07-17T07:27:04;21.90;57.20
8910;DHT22;4490;49.072;8.804;2022-07-17T07:29:29;22.00;56.70
8910;DHT22;4490;49.072;8.804;2022-07-17T07:31:55;22.10;56.50
8910;DHT22;4490;49.072;8.804;2022-07-17T07:34:21;22.20;56.60
8910;DHT22;4490;49.072;8.804;2022-07-17T07:36:47;22.20;56.70
8910;DHT22;4490;49.072;8.804;2022-07-17T07:39:12;22.30;56.40
8910;DHT22;4490;49.072;8.804;2022-07-17T07:41:38;22.40;56.00
8910;DHT22;4490;49.072;8.804;2022-07-17T07:44:04;22.50;56.10
8910;DHT22;4490;49.072;8.804;2022-07-17T07:46:29;22.60;56.00
8910;DHT22;4490;49.072;8.804;2022-07-17T07:48:55;22.70;56.10
8910;DHT22;4490;49.072;8.804;2022-07-17T07:51:21;22.80;55.70
8910;DHT22;4490;49.072;8.804;2022-07-17T07:53:46;23.00;56.00
8910;DHT22;4490;49.072;8.804;2022-07-17T07:56:12;23.10;55.10
8910;DHT22;4490;49.072;8.804;2022-07-17T07:58:38;23.30;55.10
8910;DHT22;4490;49.072;8.804;2022-07-17T08:01:03;23.40;55.20
8910;DHT22;4490;49.072;8.804;2022-07-17T08:03:29;23.50;55.30
8910;DHT22;4490;49.072;8.804;2022-07-17T08:05:55;23.70;54.90
8910;DHT22;4490;49.072;8.804;2022-07-17T08:08:21;23.80;53.90
8910;DHT22;4490;49.072;8.804;2022-07-17T08:10:46;23.80;54.00
8910;DHT22;4490;49.072;8.804;2022-07-17T08:13:12;23.90;54.20
8910;DHT22;4490;49.072;8.804;2022-07-17T08:15:37;24.00;54.00
8910;DHT22;4490;49.072;8.804;2022-07-17T08:18:03;24.10;53.60
8910;DHT22;4490;49.072;8.804;2022-07-17T08:20:29;24.20;53.40
8910;DHT22;4490;49.072;8.804;2022-07-17T08:22:55;24.40;53.40
8910;DHT22;4490;49.072;8.804;2022-07-17T08:25:21;24.50;52.80
8910;DHT22;4490;49.072;8.804;2022-07-17T08:27:47;24.70;53.60
8910;DHT22;4490;49.072;8.804;2022-07-17T08:30:14;24.90;53.20
8910;DHT22;4490;49.072;8.804;2022-07-17T08:32:40;25.10;53.00
8910;DHT22;4490;49.072;8.804;2022-07-17T08:35:07;25.20;51.60
8910;DHT22;4490;49.072;8.804;2022-07-17T08:37:50;25.20;51.50
8910;DHT22;4490;49.072;8.804;2022-07-17T08:42:43;25.40;51.30
8910;DHT22;4490;49.072;8.804;2022-07-17T08:45:10;25.50;50.80
8910;DHT22;4490;49.072;8.804;2022-07-17T08:47:37;25.70;50.70
8910;DHT22;4490;49.072;8.804;2022-07-17T08:50:03;25.90;50.70
8910;DHT22;4490;49.072;8.804;2022-07-17T08:52:29;26.00;50.10
8910;DHT22;4490;49.072;8.804;2022-07-17T08:54:55;26.20;49.90
8910;DHT22;4490;49.072;8.804;2022-07-17T08:57:20;26.30;49.20
8910;DHT22;4490;49.072;8.804;2022-07-17T08:59:49;26.40;49.10
8910;DHT22;4490;49.072;8.804;2022-07-17T09:02:15;26.60;48.60
8910;DHT22;4490;49.072;8.804;2022-07-17T09:04:40;26.70;47.30
8910;DHT22;4490;49.072;8.804;2022-07-17T09:07:06;26.80;46.90
8910;DHT22;4490;49.072;8.804;2022-07-17T09:09:32;26.90;47.10
8910;DHT22;4490;49.072;8.804;2022-07-17T09:12:01;27.00;46.60
8910;DHT22;4490;49.072;8.804;2022-07-17T09:14:41;27.20;46.70
8910;DHT22;4490;49.072;8.804;2022-07-17T09:17:08;27.40;46.00
8910;DHT22;4490;49.072;8.804;2022-07-17T09:19:40;27.50;45.80
8910;DHT22;4490;49.072;8.804;2022-07-17T09:22:11;27.60;45.80
8910;DHT22;4490;49.072;8.804;2022-07-17T09:24:49;27.70;45.40
8910;DHT22;4490;49.072;8.804;2022-07-17T09:27:29;27.80;45.00
8910;DHT22;4490;49.072;8.804;2022-07-17T09:29:56;27.90;44.80
8910;DHT22;4490;49.072;8.804;2022-07-17T09:32:24;27.90;44.40
8910;DHT22;4490;49.072;8.804;2022-07-17T09:34:54;28.10;44.60
8910;DHT22;4490;49.072;8.804;2022-07-17T09:37:24;28.20;44.30
8910;DHT22;4490;49.072;8.804;2022-07-17T09:39:51;28.30;43.80
8910;DHT22;4490;49.072;8.804;2022-07-17T09:42:27;28.40;42.60
8910;DHT22;4490;49.072;8.804;2022-07-17T09:44:57;28.50;41.90
8910;DHT22;4490;49.072;8.804;2022-07-17T09:47:27;28.60;43.20
8910;DHT22;4490;49.072;8.804;2022-07-17T09:49:54;28.70;43.10
8910;DHT22;4490;49.072;8.804;2022-07-17T09:52:23;28.90;42.60
8910;DHT22;4490;49.072;8.804;2022-07-17T09:54:52;29.00;41.60
8910;DHT22;4490;49.072;8.804;2022-07-17T09:57:21;29.00;41.60
8910;DHT22;4490;49.072;8.804;2022-07-17T09:59:49;29.10;41.20
8910;DHT22;4490;49.072;8.804;2022-07-17T10:02:16;29.20;40.50
8910;DHT22;4490;49.072;8.804;2022-07-17T10:04:43;29.40;40.90
8910;DHT22;4490;49.072;8.804;2022-07-17T10:07:11;29.50;40.10
8910;DHT22;4490;49.072;8.804;2022-07-17T10:09:39;29.50;40.00
8910;DHT22;4490;49.072;8.804;2022-07-17T10:12:06;29.60;40.00
8910;DHT22;4490;49.072;8.804;2022-07-17T10:14:32;29.60;40.20
8910;DHT22;4490;49.072;8.804;2022-07-17T10:17:12;29.80;39.80
8910;DHT22;4490;49.072;8.804;2022-07-17T10:19:50;29.90;38.40
8910;DHT22;4490;49.072;8.804;2022-07-17T10:22:20;30.00;39.50
8910;DHT22;4490;49.072;8.804;2022-07-17T10:24:51;30.10;40.10
8910;DHT22;4490;49.072;8.804;2022-07-17T10:27:29;30.20;39.30
8910;DHT22;4490;49.072;8.804;2022-07-17T10:30:08;30.30;38.80
8910;DHT22;4490;49.072;8.804;2022-07-17T10:32:39;30.40;37.80
8910;DHT22;4490;49.072;8.804;2022-07-17T10:35:09;30.50;38.10
8910;DHT22;4490;49.072;8.804;2022-07-17T10:45:19;30.60;36.00
8910;DHT22;4490;49.072;8.804;2022-07-17T10:47:49;30.80;35.40
8910;DHT22;4490;49.072;8.804;2022-07-17T10:50:17;30.90;35.60
8910;DHT22;4490;49.072;8.804;2022-07-17T10:52:43;31.10;35.20
8910;DHT22;4490;49.072;8.804;2022-07-17T10:55:19;31.10;34.50
8910;DHT22;4490;49.072;8.804;2022-07-17T10:57:46;31.10;34.20
8910;DHT22;4490;49.072;8.804;2022-07-17T11:00:13;31.10;35.20
8910;DHT22;4490;49.072;8.804;2022-07-17T11:02:39;31.10;35.50
8910;DHT22;4490;49.072;8.804;2022-07-17T11:05:10;31.20;36.20
8910;DHT22;4490;49.072;8.804;2022-07-17T11:07:36;31.40;36.10
8910;DHT22;4490;49.072;8.804;2022-07-17T11:10:02;31.50;35.70
8910;DHT22;4490;49.072;8.804;2022-07-17T11:12:34;31.70;35.80
8910;DHT22;4490;49.072;8.804;2022-07-17T11:15:04;31.80;35.30
8910;DHT22;4490;49.072;8.804;2022-07-17T11:17:30;31.90;34.50
8910;DHT22;4490;49.072;8.804;2022-07-17T11:19:58;32.00;33.60
8910;DHT22;4490;49.072;8.804;2022-07-17T11:22:24;32.20;34.00
8910;DHT22;4490;49.072;8.804;2022-07-17T11:24:51;32.30;34.20
8910;DHT22;4490;49.072;8.804;2022-07-17T11:27:25;32.40;34.50
8910;DHT22;4490;49.072;8.804;2022-07-17T11:29:52;32.60;34.40
8910;DHT22;4490;49.072;8.804;2022-07-17T11:32:19;32.60;33.70
8910;DHT22;4490;49.072;8.804;2022-07-17T11:34:45;32.70;33.40
8910;DHT22;4490;49.072;8.804;2022-07-17T11:37:11;32.70;33.70
8910;DHT22;4490;49.072;8.804;2022-07-17T11:39:39;32.80;33.70
8910;DHT22;4490;49.072;8.804;2022-07-17T11:42:10;32.90;33.80
8910;DHT22;4490;49.072;8.804;2022-07-17T11:44:37;33.00;33.40
8910;DHT22;4490;49.072;8.804;2022-07-17T11:47:03;33.20;32.70
8910;DHT22;4490;49.072;8.804;2022-07-17T11:49:31;33.30;32.30
8910;DHT22;4490;49.072;8.804;2022-07-17T11:51:58;33.40;32.30
8910;DHT22;4490;49.072;8.804;2022-07-17T11:54:26;33.50;31.40
8910;DHT22;4490;49.072;8.804;2022-07-17T11:56:54;33.60;31.30
8910;DHT22;4490;49.072;8.804;2022-07-17T11:59:28;33.70;30.80
8910;DHT22;4490;49.072;8.804;2022-07-17T12:01:54;33.70;30.90
8910;DHT22;4490;49.072;8.804;2022-07-17T12:04:20;33.80;31.50
8910;DHT22;4490;49.072;8.804;2022-07-17T12:06:57;33.90;30.90
8910;DHT22;4490;49.072;8.804;2022-07-17T12:09:32;34.10;30.90
8910;DHT22;4490;49.072;8.804;2022-07-17T12:12:01;34.30;30.00
8910;DHT22;4490;49.072;8.804;2022-07-17T12:14:28;34.40;29.80
8910;DHT22;4490;49.072;8.804;2022-07-17T12:16:57;34.40;29.90
8910;DHT22;4490;49.072;8.804;2022-07-17T12:19:24;34.60;29.60
8910;DHT22;4490;49.072;8.804;2022-07-17T12:22:02;34.80;30.00
8910;DHT22;4490;49.072;8.804;2022-07-17T12:24:37;34.90;29.70
8910;DHT22;4490;49.072;8.804;2022-07-17T12:27:05;34.80;29.20
8910;DHT22;4490;49.072;8.804;2022-07-17T12:29:31;34.80;29.00
8910;DHT22;4490;49.072;8.804;2022-07-17T12:32:14;34.80;29.10
8910;DHT22;4490;49.072;8.804;2022-07-17T12:34:48;34.80;28.70
8910;DHT22;4490;49.072;8.804;2022-07-17T12:37:21;34.90;28.50
8910;DHT22;4490;49.072;8.804;2022-07-17T12:39:50;35.00;28.20
8910;DHT22;4490;49.072;8.804;2022-07-17T12:42:16;35.00;28.80
8910;DHT22;4490;49.072;8.804;2022-07-17T12:44:43;35.00;28.40
8910;DHT22;4490;49.072;8.804;2022-07-17T12:47:08;35.00;27.60
8910;DHT22;4490;49.072;8.804;2022-07-17T12:49:34;34.90;27.90
8910;DHT22;4490;49.072;8.804;2022-07-17T12:52:00;35.00;27.90
8910;DHT22;4490;49.072;8.804;2022-07-17T12:54:26;35.10;28.00
8910;DHT22;4490;49.072;8.804;2022-07-17T12:56:52;35.20;28.10
8910;DHT22;4490;49.072;8.804;2022-07-17T12:59:17;35.10;27.50
8910;DHT22;4490;49.072;8.804;2022-07-17T13:01:44;35.00;27.40
8910;DHT22;4490;49.072;8.804;2022-07-17T13:04:11;34.90;27.10
8910;DHT22;4490;49.072;8.804;2022-07-17T13:06:37;34.90;27.00
8910;DHT22;4490;49.072;8.804;2022-07-17T13:09:02;34.90;27.50
8910;DHT22;4490;49.072;8.804;2022-07-17T13:11:28;34.80;27.60
8910;DHT22;4490;49.072;8.804;2022-07-17T13:13:54;34.80;27.60
8910;DHT22;4490;49.072;8.804;2022-07-17T13:16:19;34.80;27.90
8910;DHT22;4490;49.072;8.804;2022-07-17T13:18:46;34.70;27.50
8910;DHT22;4490;49.072;8.804;2022-07-17T13:21:11;34.70;27.00
8910;DHT22;4490;49.072;8.804;2022-07-17T13:23:37;34.80;26.90
8910;DHT22;4490;49.072;8.804;2022-07-17T13:26:03;34.90;26.90
8910;DHT22;4490;49.072;8.804;2022-07-17T13:28:29;35.00;26.80
8910;DHT22;4490;49.072;8.804;2022-07-17T13:30:55;35.00;27.30
8910;DHT22;4490;49.072;8.804;2022-07-17T13:33:21;35.10;27.80
8910;DHT22;4490;49.072;8.804;2022-07-17T13:35:47;35.10;27.70
8910;DHT22;4490;49.072;8.804;2022-07-17T13:38:12;35.00;27.70
8910;DHT22;4490;49.072;8.804;2022-07-17T13:40:38;35.00;27.00
8910;DHT22;4490;49.072;8.804;2022-07-17T13:43:04;34.90;27.00
8910;DHT22;4490;49.072;8.804;2022-07-17T13:45:30;34.80;27.30
8910;DHT22;4490;49.072;8.804;2022-07-17T13:47:57;34.60;27.40
8910;DHT22;4490;49.072;8.804;2022-07-17T13:50:23;34.40;27.30
8910;DHT22;4490;49.072;8.804;2022-07-17T13:52:49;34.20;27.40
8910;DHT22;4490;49.072;8.804;2022-07-17T13:55:14;34.10;27.40
8910;DHT22;4490;49.072;8.804;2022-07-17T13:57:41;34.10;27.80
8910;DHT22;4490;49.072;8.804;2022-07-17T14:00:07;34.10;27.40
8910;DHT22;4490;49.072;8.804;2022-07-17T14:02:35;34.20;27.40
8910;DHT22;4490;49.072;8.804;2022-07-17T14:05:02;34.30;27.30
8910;DHT22;4490;49.072;8.804;2022-07-17T14:07:28;34.40;27.50
8910;DHT22;4490;49.072;8.804;2022-07-17T14:09:53;34.40;27.10
8910;DHT22;4490;49.072;8.804;2022-07-17T14:12:19;34.30;26.90
8910;DHT22;4490;49.072;8.804;2022-07-17T14:14:45;34.20;26.10
8910;DHT22;4490;49.072;8.804;2022-07-17T14:17:10;34.10;26.10
8910;DHT22;4490;49.072;8.804;2022-07-17T14:19:36;34.00;26.70
8910;DHT22;4490;49.072;8.804;2022-07-17T14:22:02;33.90;27.30
8910;DHT22;4490;49.072;8.804;2022-07-17T14:24:28;33.80;27.50
8910;DHT22;4490;49.072;8.804;2022-07-17T14:26:54;33.60;27.70
8910;DHT22;4490;49.072;8.804;2022-07-17T14:29:19;33.60;28.00
8910;DHT22;4490;49.072;8.804;2022-07-17T14:31:45;33.60;27.90
8910;DHT22;4490;49.072;8.804;2022-07-17T14:34:12;33.70;27.80
8910;DHT22;4490;49.072;8.804;2022-07-17T14:36:38;33.70;28.00
8910;DHT22;4490;49.072;8.804;2022-07-17T14:39:04;33.70;28.10
8910;DHT22;4490;49.072;8.804;2022-07-17T14:41:30;33.70;28.40
8910;DHT22;4490;49.072;8.804;2022-07-17T14:43:56;33.50;28.20
8910;DHT22;4490;49.072;8.804;2022-07-17T14:46:23;33.50;27.90
8910;DHT22;4490;49.072;8.804;2022-07-17T14:48:48;33.40;27.80
8910;DHT22;4490;49.072;8.804;2022-07-17T14:51:14;33.20;28.30
8910;DHT22;4490;49.072;8.804;2022-07-17T14:53:40;33.20;28.50
8910;DHT22;4490;49.072;8.804;2022-07-17T14:56:05;33.00;28.40
8910;DHT22;4490;49.072;8.804;2022-07-17T14:58:31;32.90;28.20
8910;DHT22;4490;49.072;8.804;2022-07-17T15:00:57;32.80;27.80
8910;DHT22;4490;49.072;8.804;2022-07-17T15:03:23;32.80;27.90
8910;DHT22;4490;49.072;8.804;2022-07-17T15:05:48;32.70;28.00
8910;DHT22;4490;49.072;8.804;2022-07-17T15:08:14;32.70;28.10
8910;DHT22;4490;49.072;8.804;2022-07-17T15:10:40;32.60;28.40
8910;DHT22;4490;49.072;8.804;2022-07-17T15:13:05;32.50;28.60
8910;DHT22;4490;49.072;8.804;2022-07-17T15:15:31;32.50;28.40
8910;DHT22;4490;49.072;8.804;2022-07-17T15:17:56;32.40;28.80
8910;DHT22;4490;49.072;8.804;2022-07-17T15:20:23;32.30;29.20
8910;DHT22;4490;49.072;8.804;2022-07-17T15:22:49;32.20;29.40
8910;DHT22;4490;49.072;8.804;2022-07-17T15:25:15;32.20;29.20
8910;DHT22;4490;49.072;8.804;2022-07-17T15:27:41;32.20;29.50
8910;DHT22;4490;49.072;8.804;2022-07-17T15:30:07;32.10;29.50
8910;DHT22;4490;49.072;8.804;2022-07-17T15:32:33;32.00;29.40
8910;DHT22;4490;49.072;8.804;2022-07-17T15:35:03;32.00;29.70
8910;DHT22;4490;49.072;8.804;2022-07-17T15:37:30;31.90;29.20
8910;DHT22;4490;49.072;8.804;2022-07-17T15:39:56;31.80;29.30
8910;DHT22;4490;49.072;8.804;2022-07-17T15:42:22;31.70;29.50
8910;DHT22;4490;49.072;8.804;2022-07-17T15:44:47;31.70;30.00
8910;DHT22;4490;49.072;8.804;2022-07-17T15:47:13;31.70;30.00
8910;DHT22;4490;49.072;8.804;2022-07-17T15:49:39;31.60;29.70
8910;DHT22;4490;49.072;8.804;2022-07-17T15:52:05;31.50;29.70
8910;DHT22;4490;49.072;8.804;2022-07-17T15:54:30;31.40;30.00
8910;DHT22;4490;49.072;8.804;2022-07-17T15:56:56;31.40;30.00
8910;DHT22;4490;49.072;8.804;2022-07-17T15:59:22;31.40;29.80
8910;DHT22;4490;49.072;8.804;2022-07-17T16:01:47;31.40;29.70
8910;DHT22;4490;49.072;8.804;2022-07-17T16:04:13;31.40;29.80
8910;DHT22;4490;49.072;8.804;2022-07-17T16:06:39;31.40;29.90
8910;DHT22;4490;49.072;8.804;2022-07-17T16:09:05;31.30;30.00